CJH3 weather

Maidstone Airport
Maidstone, Saskatchewan, Canada

Public forecast

Using degrees Celsius for public forecast. Weather courtesy of forecast.io.

Closest aviation weather report (METAR) to Maidstone Airport

Closest report is Lloydminster Airport, 29.8 nm (55.3 km) WNW. Retrieved 2019/10/17 14:00 UTC (27 minutes ago):

CYLL 171400Z 12004KT 15SM SCT170 OVC230 01/M01 A2932 RMK AC5CI3 SLP954

Closest aviation forecast (TAF) to Maidstone Airport

Closest forecast is Lloydminster Airport, 29.8 nm (55.3 km) WNW. Retrieved 2019/10/17 12:39 UTC (2 hours ago):

TAF TAF CYLL 171138Z 1712/1724 18008KT P6SM SCT120 BKN200 FM171600 18008KT P6SM BKN120 BECMG 1720/1722 25010KT RMK FCST BASED ON AUTO OBS NXT FCST BY 171800Z